createdAt,value
2017-12-05T00:00:38.068Z,22.01
2017-12-05T00:02:41.415Z,22.01
2017-12-05T00:04:44.725Z,22.00
2017-12-05T00:06:48.080Z,22.00
2017-12-05T00:08:51.473Z,22.00
2017-12-05T00:10:54.757Z,22.00
2017-12-05T00:12:58.268Z,22.00
2017-12-05T00:15:01.596Z,22.00
2017-12-05T00:17:05.038Z,21.99
2017-12-05T00:19:08.319Z,21.99
2017-12-05T00:21:11.719Z,21.99
2017-12-05T00:23:15.086Z,21.98
2017-12-05T00:25:18.400Z,21.99
2017-12-05T00:27:22.204Z,21.98
2017-12-05T00:29:25.676Z,21.98
2017-12-05T00:31:29.817Z,21.98
2017-12-05T00:33:33.153Z,21.97
2017-12-05T00:35:36.448Z,21.98
2017-12-05T00:37:39.842Z,21.97
2017-12-05T00:39:43.270Z,21.97
2017-12-05T00:41:46.600Z,21.96
2017-12-05T00:43:49.951Z,21.96
2017-12-05T00:45:53.263Z,21.96
2017-12-05T00:47:56.641Z,21.96
2017-12-05T00:49:59.978Z,21.96
2017-12-05T00:52:03.299Z,21.95
2017-12-05T00:54:06.614Z,21.95
2017-12-05T00:56:10.028Z,21.96
2017-12-05T00:58:13.387Z,21.96
2017-12-05T01:00:16.800Z,21.95
2017-12-05T01:02:20.178Z,21.95
2017-12-05T01:04:23.532Z,21.94
2017-12-05T01:06:26.855Z,21.94
2017-12-05T01:08:30.247Z,21.94
2017-12-05T01:10:33.633Z,21.94
2017-12-05T01:12:36.990Z,21.94
2017-12-05T01:14:40.317Z,21.94
2017-12-05T01:16:43.708Z,21.94
2017-12-05T01:18:47.047Z,21.94
2017-12-05T01:20:50.359Z,21.94
2017-12-05T01:22:53.701Z,21.92
2017-12-05T01:24:57.071Z,21.92
2017-12-05T01:27:00.611Z,21.93
2017-12-05T01:29:03.934Z,21.93
2017-12-05T01:31:07.214Z,21.93
2017-12-05T01:33:10.538Z,21.93
2017-12-05T01:35:13.836Z,21.93
2017-12-05T01:37:17.204Z,21.92
2017-12-05T01:39:20.607Z,21.92
2017-12-05T01:41:23.998Z,21.92
2017-12-05T01:43:27.279Z,21.92
2017-12-05T01:45:30.648Z,21.91
2017-12-05T01:47:33.980Z,21.92
2017-12-05T01:49:37.391Z,21.91
2017-12-05T01:51:40.677Z,21.91
2017-12-05T01:53:44.007Z,21.91
2017-12-05T01:55:47.349Z,21.91
2017-12-05T01:57:50.631Z,21.91
2017-12-05T01:59:53.957Z,21.90
2017-12-05T02:01:57.262Z,21.90
2017-12-05T02:04:00.566Z,21.91
2017-12-05T02:06:03.901Z,21.89
2017-12-05T02:08:07.200Z,21.90
2017-12-05T02:10:10.534Z,21.89
2017-12-05T02:12:13.956Z,21.89
2017-12-05T02:14:17.243Z,21.90
2017-12-05T02:16:20.855Z,21.89
2017-12-05T02:18:24.165Z,21.89
2017-12-05T02:20:27.444Z,21.89
2017-12-05T02:22:30.816Z,21.89
2017-12-05T02:24:34.157Z,21.88
2017-12-05T02:26:37.456Z,21.88
2017-12-05T02:28:40.781Z,21.88
2017-12-05T02:30:44.175Z,21.89
2017-12-05T02:32:47.461Z,21.88
2017-12-05T02:34:50.763Z,21.88
2017-12-05T02:36:54.145Z,21.89
2017-12-05T02:38:57.592Z,21.88
2017-12-05T02:41:09.833Z,21.88
2017-12-05T02:43:13.157Z,21.87
2017-12-05T02:45:16.522Z,21.88
2017-12-05T02:47:19.799Z,21.88
2017-12-05T02:49:23.156Z,21.87
2017-12-05T02:51:26.693Z,21.87
2017-12-05T02:53:29.984Z,21.88
2017-12-05T02:55:33.299Z,21.88
2017-12-05T02:57:36.667Z,21.87
2017-12-05T02:59:39.983Z,21.87
2017-12-05T03:01:43.317Z,21.87
2017-12-05T03:03:46.736Z,21.87
2017-12-05T03:05:50.046Z,21.87
2017-12-05T03:07:53.732Z,21.87
2017-12-05T03:09:57.056Z,21.86
2017-12-05T03:12:00.405Z,21.87
2017-12-05T03:14:03.693Z,21.86
2017-12-05T03:16:06.993Z,21.86
2017-12-05T03:18:10.423Z,21.86
2017-12-05T03:20:13.872Z,21.85
2017-12-05T03:22:17.142Z,21.85
2017-12-05T03:24:20.531Z,21.85
2017-12-05T03:26:23.825Z,21.86
2017-12-05T03:28:27.236Z,21.86
2017-12-05T03:30:30.536Z,21.86
2017-12-05T03:32:34.017Z,21.86
2017-12-05T03:34:37.359Z,21.85
2017-12-05T03:36:40.690Z,21.85
2017-12-05T03:38:44.028Z,21.85
2017-12-05T03:40:47.335Z,21.85
2017-12-05T03:42:50.706Z,21.85
2017-12-05T03:44:54.096Z,21.85
2017-12-05T03:46:57.392Z,21.85
2017-12-05T03:49:00.689Z,21.85
2017-12-05T03:51:04.161Z,21.85
2017-12-05T03:53:07.416Z,21.85
2017-12-05T03:55:10.819Z,21.84
2017-12-05T03:57:14.160Z,21.84
2017-12-05T03:59:17.476Z,21.85
2017-12-05T04:01:20.789Z,21.84
2017-12-05T04:03:24.091Z,21.84
2017-12-05T04:05:27.440Z,21.85
2017-12-05T04:07:30.855Z,21.84
2017-12-05T04:09:34.190Z,21.84
2017-12-05T04:11:37.620Z,21.83
2017-12-05T04:13:41.029Z,21.83
2017-12-05T04:15:44.422Z,21.83
2017-12-05T04:17:47.717Z,21.83
2017-12-05T04:19:51.243Z,21.83
2017-12-05T04:21:54.597Z,21.82
2017-12-05T04:23:57.927Z,21.82
2017-12-05T04:26:01.381Z,21.83
2017-12-05T04:28:04.774Z,21.82
2017-12-05T04:30:08.111Z,21.82
2017-12-05T04:32:11.400Z,21.81
2017-12-05T04:34:14.812Z,21.81
2017-12-05T04:36:18.136Z,21.81
2017-12-05T04:38:21.504Z,21.82
2017-12-05T04:40:24.824Z,21.81
2017-12-05T04:42:28.248Z,21.81
2017-12-05T04:44:31.648Z,21.80
2017-12-05T04:46:34.990Z,21.81
2017-12-05T04:48:38.288Z,21.81
2017-12-05T04:50:41.777Z,21.81
2017-12-05T04:52:45.166Z,21.80
2017-12-05T04:54:48.612Z,21.80
2017-12-05T04:56:51.905Z,21.80
2017-12-05T04:58:55.342Z,21.80
2017-12-05T05:00:58.632Z,21.80
2017-12-05T05:03:01.928Z,21.80
2017-12-05T05:05:05.247Z,21.80
2017-12-05T05:07:08.547Z,21.79
2017-12-05T05:09:11.852Z,21.79
2017-12-05T05:11:15.284Z,21.79
2017-12-05T05:13:18.588Z,21.79
2017-12-05T05:15:21.911Z,21.79
2017-12-05T05:17:25.237Z,21.79
2017-12-05T05:19:28.614Z,21.78
2017-12-05T05:21:32.211Z,21.78
2017-12-05T05:23:35.540Z,21.79
2017-12-05T05:25:38.876Z,21.78
2017-12-05T05:27:42.251Z,21.78
2017-12-05T05:29:45.688Z,21.78
2017-12-05T05:31:48.992Z,21.78
2017-12-05T05:33:52.389Z,21.77
2017-12-05T05:35:55.738Z,21.77
2017-12-05T05:37:59.095Z,21.78
2017-12-05T05:40:02.473Z,21.78
2017-12-05T05:42:05.960Z,21.77
2017-12-05T05:44:09.313Z,21.77
2017-12-05T05:46:12.611Z,21.77
2017-12-05T05:48:15.976Z,21.77
2017-12-05T05:50:19.356Z,21.78
2017-12-05T05:52:22.726Z,21.78
2017-12-05T05:54:26.089Z,21.78
2017-12-05T05:56:29.402Z,21.77
2017-12-05T05:58:32.701Z,21.77
2017-12-05T06:00:36.028Z,21.77
2017-12-05T06:02:39.341Z,21.77
2017-12-05T06:04:42.662Z,21.77
2017-12-05T06:06:45.996Z,21.78
2017-12-05T06:08:49.292Z,21.77
2017-12-05T06:10:52.704Z,21.77
2017-12-05T06:12:56.022Z,21.77
2017-12-05T06:14:59.505Z,21.77
2017-12-05T06:17:02.781Z,21.76
2017-12-05T06:19:06.140Z,21.76
2017-12-05T06:21:09.455Z,21.76
2017-12-05T06:23:12.972Z,21.76
2017-12-05T06:25:16.579Z,21.75
2017-12-05T06:27:20.064Z,21.76
2017-12-05T06:29:23.510Z,21.75
2017-12-05T06:31:26.819Z,21.76
2017-12-05T06:33:30.167Z,21.76
2017-12-05T06:35:33.454Z,21.76
2017-12-05T06:37:37.054Z,21.76
2017-12-05T06:39:40.514Z,21.76
2017-12-05T06:41:43.810Z,21.76
2017-12-05T06:43:47.173Z,21.75
2017-12-05T06:45:50.694Z,21.76
2017-12-05T06:47:53.973Z,21.76
2017-12-05T06:49:57.299Z,21.76
2017-12-05T06:52:00.710Z,21.76
2017-12-05T06:54:04.093Z,21.76
2017-12-05T06:56:07.547Z,21.77
2017-12-05T06:58:10.839Z,21.76
2017-12-05T07:00:14.262Z,21.76
2017-12-05T07:02:17.595Z,21.76
2017-12-05T07:04:20.915Z,21.76
2017-12-05T07:06:24.200Z,21.76
2017-12-05T07:08:27.540Z,21.77
2017-12-05T07:10:30.857Z,21.77
2017-12-05T07:12:34.204Z,21.77
2017-12-05T07:14:37.464Z,21.77
2017-12-05T07:16:40.776Z,21.78
2017-12-05T07:18:44.449Z,21.80
2017-12-05T07:20:47.838Z,21.83
2017-12-05T07:22:51.285Z,21.85
2017-12-05T07:24:54.660Z,21.87
2017-12-05T07:26:58.013Z,21.89
2017-12-05T07:29:01.349Z,21.91
2017-12-05T07:31:04.663Z,21.94
2017-12-05T07:33:08.189Z,21.96
2017-12-05T07:35:11.541Z,21.98
2017-12-05T07:37:14.918Z,22.00
2017-12-05T07:39:18.240Z,22.02
2017-12-05T07:41:21.694Z,22.03
2017-12-05T07:43:24.984Z,22.05
2017-12-05T07:45:28.412Z,22.07
2017-12-05T07:47:31.680Z,22.08
2017-12-05T07:49:34.979Z,22.10
2017-12-05T07:51:38.329Z,22.12
2017-12-05T07:53:41.696Z,22.13
2017-12-05T07:55:44.999Z,22.14
2017-12-05T07:57:48.424Z,22.17
2017-12-05T07:59:51.753Z,22.18
2017-12-05T08:01:55.089Z,22.20
2017-12-05T08:03:58.407Z,22.21
2017-12-05T08:06:01.859Z,22.23
2017-12-05T08:08:05.155Z,22.24
2017-12-05T08:10:08.517Z,22.25
2017-12-05T08:12:11.806Z,22.27
2017-12-05T08:14:15.204Z,22.28
2017-12-05T08:16:18.582Z,22.29
2017-12-05T08:18:21.953Z,22.30
2017-12-05T08:20:25.401Z,22.31
2017-12-05T08:22:28.724Z,22.32
2017-12-05T08:24:32.021Z,22.33
2017-12-05T08:26:35.489Z,22.34
2017-12-05T08:28:38.845Z,22.35
2017-12-05T08:30:43.157Z,22.37
2017-12-05T08:32:46.599Z,22.38
2017-12-05T08:34:49.920Z,22.39
2017-12-05T08:36:53.239Z,22.41
2017-12-05T08:38:56.651Z,22.42
2017-12-05T08:40:59.963Z,22.43
2017-12-05T08:43:03.325Z,22.44
2017-12-05T08:45:06.628Z,22.45
2017-12-05T08:47:09.988Z,22.45
2017-12-05T08:49:13.659Z,22.46
2017-12-05T08:51:16.984Z,22.47
2017-12-05T08:53:20.376Z,22.48
2017-12-05T08:55:23.716Z,22.49
2017-12-05T08:57:27.236Z,22.50
2017-12-05T08:59:30.587Z,22.51
2017-12-05T09:01:33.978Z,22.52
2017-12-05T09:03:37.284Z,22.53
2017-12-05T09:05:40.659Z,22.53
2017-12-05T09:07:44.006Z,22.54
2017-12-05T09:09:47.288Z,22.54
2017-12-05T09:11:50.669Z,22.54
2017-12-05T09:13:54.021Z,22.55
2017-12-05T09:15:57.326Z,22.55
2017-12-05T09:18:00.656Z,22.54
2017-12-05T09:20:04.001Z,22.55
2017-12-05T09:22:07.365Z,22.55
2017-12-05T09:24:10.700Z,22.54
2017-12-05T09:26:14.033Z,22.55
2017-12-05T09:28:17.520Z,22.55
2017-12-05T09:30:20.909Z,22.55
2017-12-05T09:32:24.244Z,22.56
2017-12-05T09:34:27.538Z,22.56
2017-12-05T09:36:30.852Z,22.56
2017-12-05T09:38:34.508Z,22.56
2017-12-05T09:40:37.966Z,22.56
2017-12-05T09:42:41.268Z,22.56
2017-12-05T09:44:46.108Z,22.56
2017-12-05T09:46:49.471Z,22.57
2017-12-05T09:48:52.774Z,22.57
2017-12-05T09:50:56.082Z,22.57
2017-12-05T09:52:59.373Z,22.58
2017-12-05T09:55:02.841Z,22.59
2017-12-05T09:57:06.440Z,22.58
2017-12-05T09:59:09.727Z,22.59
2017-12-05T10:01:13.112Z,22.59
2017-12-05T10:03:16.439Z,22.59
2017-12-05T10:05:19.896Z,22.61
2017-12-05T10:07:23.360Z,22.61
2017-12-05T10:09:26.678Z,22.61
2017-12-05T10:11:29.939Z,22.61
2017-12-05T10:13:33.298Z,22.62
2017-12-05T10:15:36.596Z,22.62
2017-12-05T10:17:39.887Z,22.62
2017-12-05T10:19:43.208Z,22.62
2017-12-05T10:21:46.508Z,22.63
2017-12-05T10:23:49.911Z,22.63
2017-12-05T10:25:53.244Z,22.64
2017-12-05T10:27:56.541Z,22.64
2017-12-05T10:30:00.037Z,22.64
2017-12-05T10:32:03.440Z,22.65
2017-12-05T10:34:07.584Z,22.65
2017-12-05T10:36:10.979Z,22.66
2017-12-05T10:38:14.470Z,22.66
2017-12-05T10:40:17.862Z,22.68
2017-12-05T10:42:21.331Z,22.68
2017-12-05T10:44:24.750Z,22.69
2017-12-05T10:46:28.028Z,22.70
2017-12-05T10:48:31.320Z,22.70
2017-12-05T10:50:34.680Z,22.71
2017-12-05T10:52:37.965Z,22.72
2017-12-05T10:54:41.288Z,22.74
2017-12-05T10:56:44.620Z,22.74
2017-12-05T10:58:48.045Z,22.75
2017-12-05T11:00:51.367Z,22.76
2017-12-05T11:02:54.925Z,22.77
2017-12-05T11:04:58.285Z,22.77
2017-12-05T11:07:01.644Z,22.77
2017-12-05T11:09:04.964Z,22.78
2017-12-05T11:11:08.285Z,22.78
2017-12-05T11:13:11.567Z,22.81
2017-12-05T11:15:15.944Z,22.81
2017-12-05T11:17:19.239Z,22.81
2017-12-05T11:19:22.569Z,22.81
2017-12-05T11:21:25.863Z,22.81
2017-12-05T11:23:29.274Z,22.82
2017-12-05T11:25:32.704Z,22.82
2017-12-05T11:27:36.233Z,22.82
2017-12-05T11:29:39.654Z,22.82
2017-12-05T11:31:43.273Z,22.83
2017-12-05T11:33:46.666Z,22.83
2017-12-05T11:35:49.956Z,22.84
2017-12-05T11:37:53.346Z,22.84
2017-12-05T11:39:56.656Z,22.84
2017-12-05T11:42:00.030Z,22.84
2017-12-05T11:44:03.356Z,22.85
2017-12-05T11:46:06.710Z,22.86
2017-12-05T11:48:10.034Z,22.85
2017-12-05T11:50:13.399Z,22.86
2017-12-05T11:52:16.787Z,22.87
2017-12-05T11:54:20.174Z,22.87
2017-12-05T11:56:23.490Z,22.87
2017-12-05T11:58:26.839Z,22.87
2017-12-05T12:00:30.176Z,22.88
2017-12-05T12:02:33.637Z,22.88
2017-12-05T12:04:37.012Z,22.88
2017-12-05T12:06:40.318Z,22.89
2017-12-05T12:08:43.689Z,22.88
2017-12-05T12:10:47.093Z,22.89
2017-12-05T12:12:50.440Z,22.89
2017-12-05T12:14:53.770Z,22.90
2017-12-05T12:16:57.107Z,22.89
2017-12-05T12:19:00.436Z,22.90
2017-12-05T12:21:03.840Z,22.89
2017-12-05T12:23:07.281Z,22.90
2017-12-05T12:25:11.972Z,22.90
2017-12-05T12:27:15.443Z,22.90
2017-12-05T12:29:18.784Z,22.90
2017-12-05T12:31:22.169Z,22.91
2017-12-05T12:33:25.580Z,22.91
2017-12-05T12:35:28.996Z,22.90
2017-12-05T12:37:32.323Z,22.89
2017-12-05T12:39:35.685Z,22.89
2017-12-05T12:41:39.105Z,22.89
2017-12-05T12:43:43.451Z,22.88
2017-12-05T12:45:46.887Z,22.87
2017-12-05T12:47:50.320Z,22.87
2017-12-05T12:49:53.751Z,22.86
2017-12-05T12:51:57.116Z,22.85
2017-12-05T12:54:00.621Z,22.84
2017-12-05T12:56:04.098Z,22.83
2017-12-05T12:58:07.452Z,22.83
2017-12-05T13:00:10.803Z,22.82
2017-12-05T13:02:14.224Z,22.82
2017-12-05T13:04:17.580Z,22.82
2017-12-05T13:06:20.932Z,22.81
2017-12-05T13:08:24.325Z,22.80
2017-12-05T13:10:28.644Z,22.81
2017-12-05T13:12:31.972Z,22.86
2017-12-05T13:14:35.272Z,22.87
2017-12-05T13:16:38.712Z,22.88
2017-12-05T13:18:42.080Z,22.87
2017-12-05T13:20:45.493Z,22.87
2017-12-05T13:22:48.878Z,22.86
2017-12-05T13:24:52.282Z,22.87
2017-12-05T13:26:55.876Z,22.87
2017-12-05T13:28:59.368Z,22.86
2017-12-05T13:31:02.720Z,22.86
2017-12-05T13:33:06.116Z,22.85
2017-12-05T13:35:09.543Z,22.84
2017-12-05T13:37:12.943Z,22.84
2017-12-05T13:39:16.242Z,22.85
2017-12-05T13:41:19.572Z,22.84
2017-12-05T13:43:22.915Z,22.84
2017-12-05T13:45:26.403Z,22.84
2017-12-05T13:47:29.805Z,22.84
2017-12-05T13:49:33.150Z,22.84
2017-12-05T13:51:36.508Z,22.84
2017-12-05T13:53:39.844Z,22.84
2017-12-05T13:55:43.205Z,22.85
2017-12-05T13:57:46.510Z,22.85
2017-12-05T13:59:49.941Z,22.85
2017-12-05T14:01:53.233Z,22.85
2017-12-05T14:03:56.618Z,22.84
2017-12-05T14:06:00.012Z,22.85
2017-12-05T14:08:03.313Z,22.85
2017-12-05T14:10:06.794Z,22.85
2017-12-05T14:12:10.149Z,22.85
2017-12-05T14:14:13.520Z,22.85
2017-12-05T14:16:17.800Z,22.85
2017-12-05T14:18:21.097Z,22.85
2017-12-05T14:20:24.472Z,22.85
2017-12-05T14:22:28.390Z,22.85
2017-12-05T14:24:31.672Z,22.85
2017-12-05T14:26:35.045Z,22.86
2017-12-05T14:28:38.350Z,22.85
2017-12-05T14:30:41.669Z,22.84
2017-12-05T14:32:45.127Z,22.83
2017-12-05T14:34:48.607Z,22.84
2017-12-05T14:36:52.218Z,22.85
2017-12-05T14:38:55.556Z,22.85
2017-12-05T14:40:58.898Z,22.85
2017-12-05T14:43:02.212Z,22.86
2017-12-05T14:45:05.683Z,22.86
2017-12-05T14:47:09.085Z,22.86
2017-12-05T14:49:12.396Z,22.86
2017-12-05T14:51:15.796Z,22.86
2017-12-05T14:53:19.147Z,22.86
2017-12-05T14:55:22.539Z,22.86
2017-12-05T14:57:25.864Z,22.86
2017-12-05T14:59:29.347Z,22.86
2017-12-05T15:01:32.633Z,22.86
2017-12-05T15:03:35.996Z,22.86
2017-12-05T15:05:39.305Z,22.86
2017-12-05T15:07:42.682Z,22.86
2017-12-05T15:09:46.068Z,22.87
2017-12-05T15:11:49.372Z,22.88
2017-12-05T15:13:52.688Z,22.88
2017-12-05T15:15:56.048Z,22.88
2017-12-05T15:17:59.372Z,22.88
2017-12-05T15:20:02.831Z,22.88
2017-12-05T15:22:06.300Z,22.88
2017-12-05T15:24:09.677Z,22.88
2017-12-05T15:26:13.088Z,22.89
2017-12-05T15:28:16.447Z,22.89
2017-12-05T15:30:19.821Z,22.89
2017-12-05T15:32:23.263Z,22.89
2017-12-05T15:34:26.621Z,22.89
2017-12-05T15:36:29.993Z,22.90
2017-12-05T15:38:33.548Z,22.90
2017-12-05T15:40:36.906Z,22.90
2017-12-05T15:42:40.205Z,22.90
2017-12-05T15:44:43.581Z,22.90
2017-12-05T15:46:46.987Z,22.91
2017-12-05T15:48:50.396Z,22.90
2017-12-05T15:50:53.687Z,22.91
2017-12-05T15:52:57.083Z,22.91
2017-12-05T15:55:00.752Z,22.91
2017-12-05T15:57:04.076Z,22.91
2017-12-05T15:59:07.497Z,22.91
2017-12-05T16:01:10.952Z,22.91
2017-12-05T16:03:14.297Z,22.92
2017-12-05T16:05:18.013Z,22.92
2017-12-05T16:07:21.439Z,22.92
2017-12-05T16:09:24.847Z,22.92
2017-12-05T16:11:28.176Z,22.92
2017-12-05T16:13:31.514Z,22.93
2017-12-05T16:15:34.909Z,22.92
2017-12-05T16:17:39.217Z,22.93
2017-12-05T16:19:42.644Z,22.92
2017-12-05T16:21:45.956Z,22.93
2017-12-05T16:23:49.378Z,22.93
2017-12-05T16:25:52.656Z,22.92
2017-12-05T16:27:56.020Z,22.92
2017-12-05T16:29:59.374Z,22.92
2017-12-05T16:32:02.664Z,22.92
2017-12-05T16:34:06.024Z,22.92
2017-12-05T16:36:09.372Z,22.92
2017-12-05T16:38:12.743Z,22.91
2017-12-05T16:40:16.188Z,22.92
2017-12-05T16:42:19.593Z,22.91
2017-12-05T16:44:22.895Z,22.91
2017-12-05T16:46:26.397Z,22.92
2017-12-05T16:48:29.803Z,22.92
2017-12-05T16:50:33.193Z,22.92
2017-12-05T16:52:36.531Z,22.92
2017-12-05T16:54:39.912Z,22.93
2017-12-05T16:56:43.373Z,22.93
2017-12-05T16:58:46.714Z,22.93
2017-12-05T17:00:50.171Z,22.93
2017-12-05T17:02:53.544Z,22.93
2017-12-05T17:04:56.909Z,22.93
2017-12-05T17:07:00.330Z,22.93
2017-12-05T17:09:03.697Z,22.93
2017-12-05T17:11:07.089Z,22.93
2017-12-05T17:13:10.523Z,22.92
2017-12-05T17:15:14.056Z,22.92
2017-12-05T17:17:17.477Z,22.92
2017-12-05T17:19:20.811Z,22.92
2017-12-05T17:21:24.133Z,22.93
2017-12-05T17:23:27.574Z,22.93
2017-12-05T17:25:31.116Z,22.93
2017-12-05T17:27:34.526Z,22.94
2017-12-05T17:29:37.875Z,22.94
2017-12-05T17:31:41.242Z,22.94
2017-12-05T17:33:44.612Z,22.94
2017-12-05T17:35:48.001Z,22.93
2017-12-05T17:37:51.384Z,22.93
2017-12-05T17:39:54.755Z,22.92
2017-12-05T17:41:58.273Z,22.93
2017-12-05T17:44:01.620Z,22.93
2017-12-05T17:46:05.046Z,22.93
2017-12-05T17:48:08.406Z,22.93
2017-12-05T17:50:11.869Z,22.93
2017-12-05T17:52:15.257Z,22.93
2017-12-05T17:54:18.623Z,22.93
2017-12-05T17:56:22.044Z,22.92
2017-12-05T17:58:25.419Z,22.93
2017-12-05T18:00:28.700Z,22.93
2017-12-05T18:02:32.037Z,22.92
2017-12-05T18:04:35.368Z,22.92
2017-12-05T18:06:38.690Z,22.92
2017-12-05T18:08:42.016Z,22.92
2017-12-05T18:10:45.416Z,22.92
2017-12-05T18:12:48.847Z,22.92
2017-12-05T18:14:52.273Z,22.91
2017-12-05T18:16:55.607Z,22.90
2017-12-05T18:18:59.326Z,22.89
2017-12-05T18:21:02.768Z,22.89
2017-12-05T18:23:06.212Z,22.87
2017-12-05T18:25:09.496Z,22.86
2017-12-05T18:27:13.020Z,22.86
2017-12-05T18:29:16.305Z,22.85
2017-12-05T18:31:19.651Z,22.84
2017-12-05T18:33:23.000Z,22.82
2017-12-05T18:35:26.381Z,22.81
2017-12-05T18:37:29.823Z,22.81
2017-12-05T18:39:33.200Z,22.79
2017-12-05T18:41:36.641Z,22.78
2017-12-05T18:43:40.088Z,22.77
2017-12-05T18:45:43.475Z,22.75
2017-12-05T18:47:46.796Z,22.75
2017-12-05T18:49:50.100Z,22.73
2017-12-05T18:51:53.467Z,22.73
2017-12-05T18:53:56.871Z,22.72
2017-12-05T18:56:00.252Z,22.72
2017-12-05T18:58:03.702Z,22.71
2017-12-05T19:00:07.068Z,22.70
2017-12-05T19:02:10.488Z,22.70
2017-12-05T19:04:13.857Z,22.70
2017-12-05T19:06:17.157Z,22.70
2017-12-05T19:08:20.481Z,22.70
2017-12-05T19:10:23.926Z,22.70
2017-12-05T19:12:27.227Z,22.70
2017-12-05T19:14:30.520Z,22.71
2017-12-05T19:16:34.066Z,22.71
2017-12-05T19:18:37.376Z,22.71
2017-12-05T19:20:40.676Z,22.70
2017-12-05T19:22:44.026Z,22.70
2017-12-05T19:24:47.320Z,22.70
2017-12-05T19:26:50.625Z,22.69
2017-12-05T19:28:53.954Z,22.69
2017-12-05T19:30:57.309Z,22.70
2017-12-05T19:33:00.614Z,22.69
2017-12-05T19:35:03.953Z,22.69
2017-12-05T19:37:07.315Z,22.68
2017-12-05T19:39:10.678Z,22.69
2017-12-05T19:41:14.011Z,22.69
2017-12-05T19:43:17.595Z,22.68
2017-12-05T19:45:22.122Z,22.68
2017-12-05T19:47:25.912Z,22.67
2017-12-05T19:49:29.321Z,22.67
2017-12-05T19:51:32.680Z,22.66
2017-12-05T19:53:36.036Z,22.67
2017-12-05T19:55:39.427Z,22.66
2017-12-05T19:57:42.788Z,22.66
2017-12-05T19:59:46.154Z,22.66
2017-12-05T20:01:49.604Z,22.65
2017-12-05T20:03:52.947Z,22.64
2017-12-05T20:05:56.423Z,22.64
2017-12-05T20:07:59.729Z,22.64
2017-12-05T20:10:03.148Z,22.64
2017-12-05T20:12:06.605Z,22.64
2017-12-05T20:14:09.899Z,22.63
2017-12-05T20:16:13.208Z,22.64
2017-12-05T20:18:16.572Z,22.63
2017-12-05T20:20:19.996Z,22.62
2017-12-05T20:22:23.434Z,22.62
2017-12-05T20:24:26.755Z,22.61
2017-12-05T20:26:30.156Z,22.61
2017-12-05T20:28:33.471Z,22.60
2017-12-05T20:30:36.795Z,22.60
2017-12-05T20:32:40.225Z,22.59
2017-12-05T20:34:43.557Z,22.60
2017-12-05T20:36:46.883Z,22.58
2017-12-05T20:38:50.205Z,22.58
2017-12-05T20:40:53.997Z,22.58
2017-12-05T20:42:57.491Z,22.58
2017-12-05T20:45:00.808Z,22.57
2017-12-05T20:47:04.216Z,22.57
2017-12-05T20:49:07.646Z,22.57
2017-12-05T20:51:11.082Z,22.56
2017-12-05T20:53:14.425Z,22.56
2017-12-05T20:55:18.000Z,22.55
2017-12-05T20:57:21.308Z,22.55
2017-12-05T20:59:24.605Z,22.54
2017-12-05T21:01:27.956Z,22.54
2017-12-05T21:03:31.260Z,22.54
2017-12-05T21:05:34.602Z,22.54
2017-12-05T21:07:37.920Z,22.53
2017-12-05T21:09:41.285Z,22.53
2017-12-05T21:11:44.620Z,22.52
2017-12-05T21:13:48.120Z,22.53
2017-12-05T21:15:51.417Z,22.52
2017-12-05T21:17:54.729Z,22.51
2017-12-05T21:19:58.077Z,22.51
2017-12-05T21:22:01.422Z,22.51
2017-12-05T21:24:04.712Z,22.50
2017-12-05T21:26:08.044Z,22.50
2017-12-05T21:28:11.354Z,22.50
2017-12-05T21:30:14.658Z,22.49
2017-12-05T21:32:18.079Z,22.49
2017-12-05T21:34:21.466Z,22.49
2017-12-05T21:36:24.763Z,22.49
2017-12-05T21:38:28.125Z,22.48
2017-12-05T21:40:31.560Z,22.47
2017-12-05T21:42:34.933Z,22.48
2017-12-05T21:44:38.273Z,22.47
2017-12-05T21:46:41.564Z,22.47
2017-12-05T21:48:45.041Z,22.46
2017-12-05T21:50:48.433Z,22.46
2017-12-05T21:52:51.798Z,22.45
2017-12-05T21:54:55.140Z,22.46
2017-12-05T21:56:58.529Z,22.44
2017-12-05T21:59:01.921Z,22.44
2017-12-05T22:01:05.208Z,22.44
2017-12-05T22:03:08.531Z,22.43
2017-12-05T22:05:11.907Z,22.43
2017-12-05T22:07:15.243Z,22.43
2017-12-05T22:09:18.718Z,22.43
2017-12-05T22:11:22.114Z,22.42
2017-12-05T22:13:25.453Z,22.42
2017-12-05T22:15:28.854Z,22.41
2017-12-05T22:17:32.290Z,22.40
2017-12-05T22:19:35.631Z,22.41
2017-12-05T22:21:38.919Z,22.40
2017-12-05T22:23:42.336Z,22.39
2017-12-05T22:25:45.647Z,22.39
2017-12-05T22:27:48.984Z,22.39
2017-12-05T22:29:52.330Z,22.39
2017-12-05T22:31:55.604Z,22.38
2017-12-05T22:33:59.009Z,22.38
2017-12-05T22:36:02.381Z,22.37
2017-12-05T22:38:05.691Z,22.37
2017-12-05T22:40:09.192Z,22.37
2017-12-05T22:42:12.527Z,22.36
2017-12-05T22:44:15.897Z,22.35
2017-12-05T22:46:19.300Z,22.35
2017-12-05T22:48:22.750Z,22.36
2017-12-05T22:50:26.145Z,22.34
2017-12-05T22:52:29.533Z,22.35
2017-12-05T22:54:32.836Z,22.34
2017-12-05T22:56:36.146Z,22.33
2017-12-05T22:58:39.436Z,22.33
2017-12-05T23:00:42.793Z,22.33
2017-12-05T23:02:46.134Z,22.32
2017-12-05T23:04:49.444Z,22.32
2017-12-05T23:06:52.755Z,22.32
2017-12-05T23:08:56.092Z,22.31
2017-12-05T23:10:59.583Z,22.31
2017-12-05T23:13:03.041Z,22.30
2017-12-05T23:15:06.320Z,22.30
2017-12-05T23:17:09.616Z,22.30
2017-12-05T23:19:12.946Z,22.30
2017-12-05T23:21:16.235Z,22.30
2017-12-05T23:23:19.598Z,22.29
2017-12-05T23:25:22.969Z,22.29
2017-12-05T23:27:26.315Z,22.29
2017-12-05T23:29:29.607Z,22.29
2017-12-05T23:31:33.015Z,22.28
2017-12-05T23:33:36.319Z,22.27
2017-12-05T23:35:39.645Z,22.28
2017-12-05T23:37:42.969Z,22.27
2017-12-05T23:39:46.360Z,22.27
2017-12-05T23:41:49.681Z,22.26
2017-12-05T23:43:53.040Z,22.27
2017-12-05T23:45:56.490Z,22.26
2017-12-05T23:47:59.767Z,22.25
2017-12-05T23:50:03.098Z,22.25
2017-12-05T23:52:06.477Z,22.25
2017-12-05T23:54:09.771Z,22.25
2017-12-05T23:56:13.124Z,22.24
2017-12-05T23:58:16.416Z,22.24
